Time;durP1;ratioP1;P1;durP2;ratioP2;P2;SDS_P1;SDS_P2;PMS_P1;PMS_P2;Temp;Humidity;BMP_temperature;BMP_pressure;BME280_temperature;BME280_humidity;BME280_pressure;Samples;Min_cycle;Max_cycle;Signal;HPM_P1;HPM_P2
2022/01/22 00:01:10;;;;;;;;;;;;;;;-3.97;67.61;99939.34;5015423;28;907;-55
2022/01/22 00:03:38;;;;;;;;;;;;;;;-3.96;68.28;99942.84;4997818;28;872;-55
2022/01/22 00:06:04;;;;;;;;;;;;;;;-3.86;66.70;99945.34;5015039;28;1240;-55
2022/01/22 00:08:32;;;;;;;;;;;;;;;-3.82;67.21;99938.22;5015345;28;1970;-54
2022/01/22 00:10:59;;;;;;;;;;;;;;;-3.86;67.14;99939.94;5015438;28;882;-54
2022/01/22 00:16:10;;;;;;;;;;;;;;;-3.96;67.71;99948.25;5015607;28;699;-55
2022/01/22 00:18:36;;;;;;;;;;;;;;;-4.26;69.46;99949.66;5015082;28;877;-54
2022/01/22 00:21:02;;;;;;;;;;;;;;;-4.50;71.10;99947.94;5015137;28;794;-54
2022/01/22 00:23:29;;;;;;;;;;;;;;;-4.29;68.99;99942.16;5015087;28;944;-54
2022/01/22 00:25:56;;;;;;;;;;;;;;;-4.17;68.38;99937.06;5015306;28;880;-54
2022/01/22 00:28:22;;;;;;;;;;;;;;;-4.21;68.37;99934.16;5014939;28;1906;-54
2022/01/22 00:30:49;;;;;;;;;;;;;;;-4.05;67.69;99940.06;5015073;28;813;-55
2022/01/22 00:33:17;;;;;;;;;;;;;;;-4.16;68.27;99949.44;5014903;28;861;-54
2022/01/22 00:35:44;;;;;;;;;;;;;;;-4.02;67.46;99942.13;5015131;28;882;-53
2022/01/22 00:38:12;;;;;;;;;;;;;;;-4.22;68.78;99945.25;5014898;28;872;-53
2022/01/22 00:40:39;;;;;;;;;;;;;;;-4.42;69.81;99946.44;4997475;28;944;-54
2022/01/22 00:43:05;;;;;;;;;;;;;;;-4.08;67.29;99942.53;5014715;28;909;-54
2022/01/22 00:45:32;;;;;;;;;;;;;;;-4.03;66.80;99943.25;5014705;28;852;-54
2022/01/22 00:47:59;;;;;;;;;;;;;;;-4.16;67.91;99952.13;5014694;28;1882;-53
2022/01/22 00:50:25;;;;;;;;;;;;;;;-4.22;67.38;99945.25;5014722;28;857;-54
2022/01/22 00:52:51;;;;;;;;;;;;;;;-4.33;67.54;99937.34;5014697;28;869;-53
2022/01/22 00:55:18;;;;;;;;;;;;;;;-4.42;67.58;99935.66;5014845;28;848;-53
2022/01/22 00:57:45;;;;;;;;;;;;;;;-4.39;66.80;99935.06;5014509;28;865;-54
2022/01/22 01:00:12;;;;;;;;;;;;;;;-4.32;66.71;99928.16;5014452;28;832;-53
2022/01/22 01:02:40;;;;;;;;;;;;;;;-4.11;65.92;99925.84;5014484;28;907;-54
2022/01/22 01:05:08;;;;;;;;;;;;;;;-3.86;65.03;99929.13;5014082;28;898;-55
2022/01/22 01:07:35;;;;;;;;;;;;;;;-3.82;64.94;99927.41;5014225;28;1329;-54
2022/01/22 01:10:02;;;;;;;;;;;;;;;-3.80;63.84;99925.19;4996625;28;1967;-53
2022/01/22 01:12:28;;;;;;;;;;;;;;;-3.82;64.50;99924.72;5014196;28;809;-52
2022/01/22 01:15:12;;;;;;;;;;;;;;;-4.01;65.06;99929.44;5014122;28;890;-53
2022/01/22 01:34:08;;;;;;;;;;;;;;;-4.18;65.51;99903.03;5013927;28;1171;-55
2022/01/22 01:36:35;;;;;;;;;;;;;;;-4.40;66.50;99901.84;5013753;28;872;-53
2022/01/22 01:39:05;;;;;;;;;;;;;;;-4.29;66.16;99891.66;5013730;28;809;-53
2022/01/22 01:43:57;;;;;;;;;;;;;;;-4.19;64.62;99882.56;5013580;28;795;-53
2022/01/22 01:46:28;;;;;;;;;;;;;;;-4.14;64.12;99874.34;5013624;28;833;-54
2022/01/22 01:48:55;;;;;;;;;;;;;;;-4.08;63.89;99881.25;5013433;28;2310;-55
2022/01/22 01:51:25;;;;;;;;;;;;;;;-4.11;64.58;99882.66;5013381;28;952;-53
2022/01/22 01:54:07;;;;;;;;;;;;;;;-4.25;65.08;99881.88;5013423;28;836;-54
2022/01/22 01:59:19;;;;;;;;;;;;;;;-4.18;64.41;99882.28;5013358;28;635;-54
2022/01/22 02:01:45;;;;;;;;;;;;;;;-4.08;64.36;99885.84;5013557;28;1058;-54
2022/01/22 02:04:13;;;;;;;;;;;;;;;-4.09;64.15;99890.47;5013191;28;860;-54
2022/01/22 02:06:41;;;;;;;;;;;;;;;-3.91;63.49;99878.69;5013125;28;1287;-54
2022/01/22 02:09:09;;;;;;;;;;;;;;;-3.74;62.43;99874.56;5012945;28;1906;-53
2022/01/22 02:11:36;;;;;;;;;;;;;;;-3.76;62.84;99874.06;5013036;28;967;-53
2022/01/22 02:23:30;;;;;;;;;;;;;;;-3.74;62.34;99872.66;5013039;28;872;-53
2022/01/22 02:25:11;;;;;;;;;;;;;;;-4.09;62.69;99866.16;5013050;28;667;-53
2022/01/22 02:27:37;;;;;;;;;;;;;;;-4.23;63.14;99865.38;5012920;28;911;-54
2022/01/22 02:30:04;;;;;;;;;;;;;;;-4.15;63.56;99864.66;5013098;28;1886;-53
2022/01/22 02:35:18;;;;;;;;;;;;;;;-4.25;64.17;99864.88;5012910;28;1010;-54
2022/01/22 02:37:52;;;;;;;;;;;;;;;-4.13;63.47;99870.56;5012791;28;915;-54
2022/01/22 02:41:04;;;;;;;;;;;;;;;-4.15;63.99;99867.38;5012490;28;1001;-53
2022/01/22 02:43:12;;;;;;;;;;;;;;;-4.20;64.14;99860.19;4992759;28;1487;-54
2022/01/22 02:45:43;;;;;;;;;;;;;;;-4.11;63.56;99873.75;5012355;28;927;-54
2022/01/22 02:48:10;;;;;;;;;;;;;;;-4.21;63.45;99863.97;5012459;28;1882;-54
2022/01/22 02:50:37;;;;;;;;;;;;;;;-4.39;63.80;99865.69;5012432;28;828;-54
2022/01/22 02:53:04;;;;;;;;;;;;;;;-4.59;64.22;99872.28;5012370;28;897;-53
2022/01/22 02:55:31;;;;;;;;;;;;;;;-4.78;64.96;99872.41;5012631;28;817;-53
2022/01/22 02:57:57;;;;;;;;;;;;;;;-5.04;65.79;99863.94;5012574;28;824;-54
2022/01/22 03:00:25;;;;;;;;;;;;;;;-5.28;66.81;99866.00;5012181;28;1068;-54
2022/01/22 03:02:52;;;;;;;;;;;;;;;-5.55;68.28;99870.19;5012053;28;991;-54
2022/01/22 03:05:19;;;;;;;;;;;;;;;-5.61;69.78;99874.03;5012193;28;852;-54
2022/01/22 03:07:52;;;;;;;;;;;;;;;-5.81;70.56;99869.78;5011880;28;1245;-55
2022/01/22 03:10:22;;;;;;;;;;;;;;;-5.82;70.46;99865.50;5012344;28;880;-55
2022/01/22 03:15:48;;;;;;;;;;;;;;;-5.73;70.61;99854.88;5012031;28;706;-54
2022/01/22 03:18:23;;;;;;;;;;;;;;;-5.21;68.06;99856.41;5011914;28;873;-55
2022/01/22 03:29:08;;;;;;;;;;;;;;;-4.02;61.98;99827.94;5011368;28;1943;-55
2022/01/22 03:31:36;;;;;;;;;;;;;;;-3.88;61.10;99815.19;4994132;28;948;-52
2022/01/22 03:34:03;;;;;;;;;;;;;;;-3.71;60.18;99828.06;5011632;28;999;-54
2022/01/22 03:36:33;;;;;;;;;;;;;;;-3.67;60.08;99814.72;5011807;28;884;-55
2022/01/22 03:39:00;;;;;;;;;;;;;;;-3.71;60.08;99826.13;4994232;28;1488;-55
2022/01/22 03:41:27;;;;;;;;;;;;;;;-3.75;59.94;99827.06;5011881;28;849;-55
2022/01/22 03:43:54;;;;;;;;;;;;;;;-3.78;59.99;99824.97;4994483;28;876;-55
2022/01/22 03:46:21;;;;;;;;;;;;;;;-3.75;59.48;99816.25;5011703;28;883;-55
2022/01/22 03:48:47;;;;;;;;;;;;;;;-3.72;59.41;99813.72;5011639;28;1949;-55
2022/01/22 03:51:14;;;;;;;;;;;;;;;-3.74;59.70;99824.03;5011688;28;837;-54
2022/01/22 03:53:41;;;;;;;;;;;;;;;-3.87;60.06;99827.59;5011590;28;849;-55
2022/01/22 03:56:09;;;;;;;;;;;;;;;-3.95;60.22;99822.91;5011587;28;818;-55
2022/01/22 03:58:37;;;;;;;;;;;;;;;-3.96;60.09;99835.63;5011652;28;809;-55
2022/01/22 04:03:56;;;;;;;;;;;;;;;-4.11;60.75;99839.47;5011456;28;777;-55
2022/01/22 04:09:07;;;;;;;;;;;;;;;-4.20;60.85;99840.50;5011359;28;1919;-55
2022/01/22 04:11:37;;;;;;;;;;;;;;;-4.16;60.92;99849.56;5012168;28;813;-55
2022/01/22 04:14:03;;;;;;;;;;;;;;;-4.19;61.17;99850.97;5011294;28;893;-55
2022/01/22 04:16:31;;;;;;;;;;;;;;;-4.25;61.54;99851.38;5011328;28;853;-55
2022/01/22 04:27:15;;;;;;;;;;;;;;;-4.41;62.18;99873.28;5011256;28;620;-55
2022/01/22 04:29:41;;;;;;;;;;;;;;;-4.52;62.54;99875.38;5011127;28;1886;-55
2022/01/22 04:32:08;;;;;;;;;;;;;;;-4.59;63.26;99884.97;5011293;28;851;-55
2022/01/22 04:34:34;;;;;;;;;;;;;;;-4.90;64.24;99885.56;5011275;28;1013;-55
2022/01/22 04:37:01;;;;;;;;;;;;;;;-5.28;65.46;99893.72;5011298;28;860;-55
2022/01/22 04:39:28;;;;;;;;;;;;;;;-5.40;65.49;99882.59;5013607;28;860;-55
2022/01/22 04:41:56;;;;;;;;;;;;;;;-5.48;65.57;99883.28;5014730;28;985;-55
2022/01/22 04:44:26;;;;;;;;;;;;;;;-5.49;65.64;99884.38;5014729;28;887;-55
2022/01/22 04:47:14;;;;;;;;;;;;;;;-5.53;66.29;99873.38;5014748;28;820;-55
2022/01/22 04:52:40;;;;;;;;;;;;;;;-5.51;66.32;99873.09;5014650;28;623;-55
2022/01/22 04:55:08;;;;;;;;;;;;;;;-5.55;66.78;99867.50;5014433;28;976;-56
2022/01/22 04:57:38;;;;;;;;;;;;;;;-5.54;66.57;99877.19;5014382;28;980;-56
2022/01/22 05:00:07;;;;;;;;;;;;;;;-5.62;66.53;99883.22;5014444;28;828;-56
2022/01/22 05:02:34;;;;;;;;;;;;;;;-5.68;67.37;99877.09;5014605;28;872;-57
2022/01/22 05:05:01;;;;;;;;;;;;;;;-5.74;67.37;99883.66;5014270;28;965;-57
2022/01/22 05:07:27;;;;;;;;;;;;;;;-5.76;67.45;99892.06;5014031;28;1275;-57
2022/01/22 05:09:53;;;;;;;;;;;;;;;-5.77;67.73;99886.94;5014252;28;1914;-57
2022/01/22 05:12:19;;;;;;;;;;;;;;;-5.80;67.63;99890.25;5014393;28;825;-57
2022/01/22 05:14:46;;;;;;;;;;;;;;;-5.86;68.27;99886.81;5014152;28;897;-57
2022/01/22 05:17:13;;;;;;;;;;;;;;;-5.86;68.14;99888.69;5014175;28;884;-57
2022/01/22 05:24:45;;;;;;;;;;;;;;;-5.75;66.90;99876.69;5014006;28;687;-55
2022/01/22 05:30:07;;;;;;;;;;;;;;;-5.65;66.67;99873.84;5013998;28;1972;-55
2022/01/22 05:37:52;;;;;;;;;;;;;;;-5.46;65.61;99865.75;4976488;28;1177;-55
2022/01/22 05:40:18;;;;;;;;;;;;;;;-5.45;65.22;99863.84;5013759;28;1057;-55
2022/01/22 05:42:48;;;;;;;;;;;;;;;-5.58;65.32;99858.09;5013624;28;904;-55
2022/01/22 05:45:15;;;;;;;;;;;;;;;-5.60;65.63;99868.38;5013612;28;1006;-55
2022/01/22 05:47:41;;;;;;;;;;;;;;;-5.58;65.76;99874.25;4996014;28;1678;-55
2022/01/22 05:50:14;;;;;;;;;;;;;;;-5.58;65.72;99874.25;5012464;28;1885;-55
2022/01/22 05:52:54;;;;;;;;;;;;;;;-5.64;66.14;99870.06;5013758;28;832;-56
2022/01/22 05:55:41;;;;;;;;;;;;;;;-5.54;65.58;99869.09;5013391;28;951;-55
2022/01/22 06:00:53;;;;;;;;;;;;;;;-5.17;65.77;99872.81;5013331;28;608;-57
2022/01/22 06:03:20;;;;;;;;;;;;;;;-4.88;65.87;99867.19;5013187;28;923;-55
2022/01/22 06:05:46;;;;;;;;;;;;;;;-4.59;66.14;99869.56;5012980;28;1275;-56
2022/01/22 06:08:16;;;;;;;;;;;;;;;-4.27;63.68;99883.28;5013038;28;1914;-55
2022/01/22 06:10:45;;;;;;;;;;;;;;;-3.93;63.94;99877.41;5013210;28;836;-55
2022/01/22 06:13:18;;;;;;;;;;;;;;;-3.50;63.90;99877.78;5013025;28;873;-55
2022/01/22 06:15:45;;;;;;;;;;;;;;;-2.99;62.05;99877.63;5013110;28;837;-56
2022/01/22 06:18:12;;;;;;;;;;;;;;;-2.80;61.61;99869.28;5012991;28;841;-55
2022/01/22 06:20:38;;;;;;;;;;;;;;;-2.84;60.71;99862.91;5012991;28;837;-56
2022/01/22 06:23:04;;;;;;;;;;;;;;;-3.10;59.33;99867.06;4995304;28;715;-55
2022/01/22 06:25:30;;;;;;;;;;;;;;;-3.03;60.90;99872.06;5012812;28;853;-56
2022/01/22 06:27:57;;;;;;;;;;;;;;;-2.76;61.86;99870.28;5012687;28;1903;-55
2022/01/22 06:30:23;;;;;;;;;;;;;;;-2.35;60.45;99877.25;5012822;28;896;-55
2022/01/22 06:32:50;;;;;;;;;;;;;;;-2.04;63.46;99874.47;5012959;28;865;-55
2022/01/22 06:35:17;;;;;;;;;;;;;;;-1.56;64.09;99862.69;5013079;28;1038;-55
2022/01/22 06:37:43;;;;;;;;;;;;;;;-1.11;63.97;99867.78;5012609;28;856;-55
2022/01/22 06:42:37;;;;;;;;;;;;;;;-0.74;63.00;99867.34;5012618;28;679;-55
2022/01/22 06:45:05;;;;;;;;;;;;;;;-0.76;63.71;99864.94;5012446;28;837;-55
2022/01/22 06:47:32;;;;;;;;;;;;;;;-0.45;65.12;99861.97;4994881;28;868;-55
2022/01/22 06:49:58;;;;;;;;;;;;;;;-0.25;62.87;99851.47;5012332;28;1886;-55
2022/01/22 06:52:26;;;;;;;;;;;;;;;0.06;65.50;99858.44;5012302;28;883;-56
2022/01/22 06:54:52;;;;;;;;;;;;;;;0.33;62.92;99863.38;5012303;28;856;-55
2022/01/22 06:57:19;;;;;;;;;;;;;;;-0.23;62.29;99857.38;5012148;28;920;-55
2022/01/22 06:59:45;;;;;;;;;;;;;;;-0.57;61.84;99861.06;5012291;28;837;-55
2022/01/22 07:02:13;;;;;;;;;;;;;;;-0.58;61.93;99848.59;5011931;28;903;-56
2022/01/22 07:04:38;;;;;;;;;;;;;;;-0.70;60.63;99841.16;5012176;28;955;-56
2022/01/22 07:07:05;;;;;;;;;;;;;;;-0.88;60.61;99838.47;5012056;28;1235;-56
2022/01/22 07:09:32;;;;;;;;;;;;;;;-0.84;59.89;99849.50;5012236;28;1973;-56
2022/01/22 07:11:58;;;;;;;;;;;;;;;-0.55;60.94;99839.81;5012312;28;923;-55
2022/01/22 07:14:26;;;;;;;;;;;;;;;-0.24;60.92;99845.69;5012039;28;860;-56
2022/01/22 07:16:52;;;;;;;;;;;;;;;-0.18;58.60;99850.94;5011956;28;951;-56
2022/01/22 07:19:20;;;;;;;;;;;;;;;-0.33;56.85;99844.94;5012029;28;872;-56
2022/01/22 07:22:05;;;;;;;;;;;;;;;-0.40;57.51;99847.41;5011913;28;924;-56
2022/01/22 07:24:40;;;;;;;;;;;;;;;-0.16;59.08;99843.25;5011789;28;944;-55
2022/01/22 07:27:06;;;;;;;;;;;;;;;-0.05;57.66;99837.09;5011722;28;920;-55
2022/01/22 07:29:32;;;;;;;;;;;;;;;-0.02;57.53;99839.16;5011848;28;1890;-55
2022/01/22 07:32:01;;;;;;;;;;;;;;;0.02;57.23;99833.84;5011819;28;901;-55
2022/01/22 07:34:28;;;;;;;;;;;;;;;0.05;56.77;99838.63;5011943;28;1063;-55
2022/01/22 07:36:54;;;;;;;;;;;;;;;0.41;58.16;99831.81;5011762;28;979;-55
2022/01/22 07:39:21;;;;;;;;;;;;;;;0.77;56.95;99824.91;5011495;28;873;-55
2022/01/22 07:41:48;;;;;;;;;;;;;;;0.98;55.59;99819.38;5011799;28;868;-56
2022/01/22 07:44:14;;;;;;;;;;;;;;;1.19;55.20;99809.19;5011680;28;848;-55
2022/01/22 07:46:40;;;;;;;;;;;;;;;1.33;56.02;99805.38;5011694;28;868;-55
2022/01/22 07:49:07;;;;;;;;;;;;;;;1.44;52.84;99806.50;5011592;28;1939;-56
2022/01/22 07:51:33;;;;;;;;;;;;;;;1.31;54.91;99802.97;5011557;28;964;-55
2022/01/22 07:54:01;;;;;;;;;;;;;;;1.06;52.95;99793.19;5011740;28;932;-55
2022/01/22 07:56:27;;;;;;;;;;;;;;;1.05;55.06;99794.34;5011474;28;986;-55
2022/01/22 07:58:56;;;;;;;;;;;;;;;1.07;55.12;99801.03;5011839;28;833;-55
2022/01/22 08:01:22;;;;;;;;;;;;;;;1.05;56.29;99805.25;5011456;28;935;-56
2022/01/22 08:03:51;;;;;;;;;;;;;;;0.82;55.62;99798.25;5011497;28;916;-55
2022/01/22 08:06:17;;;;;;;;;;;;;;;0.88;56.36;99803.50;4993629;28;1422;-55
2022/01/22 08:08:43;;;;;;;;;;;;;;;0.96;54.98;99797.16;5011448;28;1918;-55
2022/01/22 08:11:10;;;;;;;;;;;;;;;1.13;55.62;99796.16;5011497;28;845;-55
2022/01/22 08:13:36;;;;;;;;;;;;;;;1.30;58.26;99781.53;5012822;28;892;-55
2022/01/22 08:16:03;;;;;;;;;;;;;;;1.66;58.98;99791.59;5015277;28;951;-55
2022/01/22 08:18:30;;;;;;;;;;;;;;;1.97;54.92;99788.25;5015339;28;856;-55
2022/01/22 08:20:56;;;;;;;;;;;;;;;2.30;56.95;99787.22;5015127;28;880;-55
2022/01/22 08:23:24;;;;;;;;;;;;;;;2.49;59.76;99789.31;5015505;28;903;-55
2022/01/22 08:25:50;;;;;;;;;;;;;;;2.86;59.18;99781.72;5014949;28;1167;-55
2022/01/22 08:31:18;;;;;;;;;;;;;;;1.43;52.11;99772.25;5015064;28;587;-55
2022/01/22 08:36:30;;;;;;;;;;;;;;;1.16;51.34;99758.16;5015037;28;687;-55
2022/01/22 08:38:57;;;;;;;;;;;;;;;0.96;51.32;99765.31;5015255;28;860;-56
2022/01/22 08:41:23;;;;;;;;;;;;;;;0.94;50.66;99767.56;5014919;28;875;-55
2022/01/22 08:43:50;;;;;;;;;;;;;;;0.74;49.95;99763.00;5014877;28;833;-53
2022/01/22 08:46:16;;;;;;;;;;;;;;;0.11;51.40;99752.28;5014627;28;904;-55
2022/01/22 08:48:41;;;;;;;;;;;;;;;0.04;52.01;99744.63;5014611;28;1889;-54
2022/01/22 08:51:09;;;;;;;;;;;;;;;-0.11;51.58;99747.97;5014642;28;884;-54
2022/01/22 08:53:35;;;;;;;;;;;;;;;-0.29;52.33;99744.59;5014677;28;1332;-54
2022/01/22 08:56:03;;;;;;;;;;;;;;;-0.03;52.32;99747.09;5014554;28;900;-53
2022/01/22 08:58:30;;;;;;;;;;;;;;;0.10;52.22;99737.88;5014446;28;837;-55
2022/01/22 09:00:56;;;;;;;;;;;;;;;0.39;50.76;99728.00;4996822;28;1296;-55
2022/01/22 09:03:24;;;;;;;;;;;;;;;0.30;51.14;99719.13;4997195;28;931;-55
2022/01/22 09:05:52;;;;;;;;;;;;;;;0.20;51.19;99723.09;5014074;28;1130;-55
2022/01/22 09:08:20;;;;;;;;;;;;;;;0.17;51.86;99715.59;5014493;28;1918;-55
2022/01/22 09:10:46;;;;;;;;;;;;;;;0.04;52.12;99703.88;5014191;28;971;-54
2022/01/22 09:13:13;;;;;;;;;;;;;;;-0.16;52.15;99704.72;5014282;28;825;-55
2022/01/22 09:15:40;;;;;;;;;;;;;;;-0.12;52.82;99714.56;5014224;28;891;-55
2022/01/22 09:18:06;;;;;;;;;;;;;;;0.15;51.51;99699.63;4996559;28;2308;-55
2022/01/22 09:23:07;;;;;;;;;;;;;;;0.61;51.56;99688.72;5014120;28;777;-55
2022/01/22 09:25:34;;;;;;;;;;;;;;;0.35;51.68;99684.38;5013907;28;860;-55
2022/01/22 09:28:00;;;;;;;;;;;;;;;0.32;52.23;99686.97;5013950;28;861;-54
2022/01/22 09:30:26;;;;;;;;;;;;;;;0.44;52.11;99695.16;5013921;28;808;-54
2022/01/22 09:32:53;;;;;;;;;;;;;;;0.45;51.42;99698.66;5013948;28;935;-56
2022/01/22 09:35:20;;;;;;;;;;;;;;;0.73;51.58;99693.41;5014193;28;965;-56
2022/01/22 09:37:46;;;;;;;;;;;;;;;0.74;51.22;99692.25;5013938;28;853;-55
2022/01/22 09:40:13;;;;;;;;;;;;;;;0.55;50.87;99696.31;5013909;28;924;-55
2022/01/22 09:42:40;;;;;;;;;;;;;;;0.56;50.16;99680.81;5013837;28;985;-55
2022/01/22 09:45:08;;;;;;;;;;;;;;;0.56;50.65;99683.53;5014021;28;883;-55
2022/01/22 09:47:35;;;;;;;;;;;;;;;0.42;50.04;99686.53;5013748;28;877;-54
2022/01/22 09:50:03;;;;;;;;;;;;;;;0.19;51.56;99678.81;5013756;28;1886;-55
2022/01/22 09:52:30;;;;;;;;;;;;;;;0.02;50.94;99678.16;5013494;28;967;-55
2022/01/22 09:57:59;;;;;;;;;;;;;;;-0.11;52.02;99669.97;5013450;28;654;-55
2022/01/22 10:00:26;;;;;;;;;;;;;;;0.14;49.91;99664.63;5013362;28;946;-55
2022/01/22 10:02:54;;;;;;;;;;;;;;;0.35;49.63;99670.78;5013216;28;950;-55
2022/01/22 10:05:26;;;;;;;;;;;;;;;0.35;50.50;99668.06;5013363;28;833;-55
2022/01/22 10:07:55;;;;;;;;;;;;;;;0.35;50.55;99661.84;5013173;28;1088;-54
2022/01/22 10:10:22;;;;;;;;;;;;;;;0.45;49.90;99644.28;5013180;28;1971;-54
2022/01/22 10:12:51;;;;;;;;;;;;;;;0.52;49.53;99661.63;5013203;28;888;-57
2022/01/22 10:15:21;;;;;;;;;;;;;;;0.73;49.68;99653.38;4995481;28;896;-57
2022/01/22 10:17:52;;;;;;;;;;;;;;;0.67;49.01;99653.94;5013123;28;805;-57
2022/01/22 10:20:24;;;;;;;;;;;;;;;0.66;48.88;99644.19;5013335;28;876;-55
2022/01/22 10:22:55;;;;;;;;;;;;;;;0.55;48.92;99649.28;5012864;28;881;-55
2022/01/22 10:25:24;;;;;;;;;;;;;;;0.53;48.92;99648.81;5012980;28;975;-57
2022/01/22 10:27:55;;;;;;;;;;;;;;;0.63;49.67;99653.03;5012768;28;924;-57
2022/01/22 10:30:22;;;;;;;;;;;;;;;0.78;49.26;99646.91;4995180;28;1957;-57
2022/01/22 10:35:40;;;;;;;;;;;;;;;0.70;49.48;99642.38;4989037;28;1607;-55
2022/01/22 10:38:06;;;;;;;;;;;;;;;0.78;47.88;99601.44;5012540;28;896;-53
2022/01/22 10:40:35;;;;;;;;;;;;;;;0.69;47.38;99641.59;5012704;28;801;-57
2022/01/22 10:43:12;;;;;;;;;;;;;;;0.76;49.05;99628.19;5012609;28;871;-57
2022/01/22 10:45:42;;;;;;;;;;;;;;;0.84;48.51;99629.22;5013213;28;887;-56
2022/01/22 10:51:12;;;;;;;;;;;;;;;0.81;47.46;99629.91;5012116;28;1596;-55
2022/01/22 10:53:49;;;;;;;;;;;;;;;0.88;49.05;99641.03;5012644;28;883;-57
2022/01/22 10:56:19;;;;;;;;;;;;;;;1.09;46.39;99632.72;5012574;28;910;-57
2022/01/22 10:59:04;;;;;;;;;;;;;;;1.33;46.43;99631.88;5012286;28;1270;-54
2022/01/22 11:01:31;;;;;;;;;;;;;;;1.19;47.38;99612.38;5012172;28;932;-53
2022/01/22 11:16:43;;;;;;;;;;;;;;;1.46;46.84;99618.22;4992526;28;644;-58
2022/01/22 11:19:10;;;;;;;;;;;;;;;1.52;45.99;99625.03;4992348;28;873;-58
2022/01/22 11:21:41;;;;;;;;;;;;;;;1.69;45.51;99621.22;4992283;28;912;-58
2022/01/22 11:24:17;;;;;;;;;;;;;;;1.52;44.83;99617.63;4992164;28;861;-56
2022/01/22 11:26:45;;;;;;;;;;;;;;;1.33;44.56;99590.25;4992323;28;889;-57
2022/01/22 11:29:14;;;;;;;;;;;;;;;1.42;44.08;99618.91;4992100;28;1903;-56
2022/01/22 11:31:45;;;;;;;;;;;;;;;1.40;44.91;99617.66;4992373;28;938;-58
2022/01/22 11:34:17;;;;;;;;;;;;;;;1.81;44.81;99612.97;4992138;28;1054;-57
2022/01/22 11:36:59;;;;;;;;;;;;;;;1.95;45.01;99618.00;4992329;28;896;-58
2022/01/22 11:39:28;;;;;;;;;;;;;;;1.56;43.46;99613.06;4992031;28;905;-57
2022/01/22 11:42:22;;;;;;;;;;;;;;;1.62;44.70;99616.34;4992461;28;904;-56
2022/01/22 11:44:51;;;;;;;;;;;;;;;1.63;43.60;99602.38;4992323;28;868;-56
2022/01/22 11:47:22;;;;;;;;;;;;;;;1.90;45.81;99577.38;4974360;28;896;-56
2022/01/22 11:50:07;;;;;;;;;;;;;;;1.99;44.88;99595.16;4974074;28;1891;-58
2022/01/22 11:52:49;;;;;;;;;;;;;;;2.12;43.37;99579.50;4991863;28;872;-58
2022/01/22 11:55:18;;;;;;;;;;;;;;;2.33;44.16;99573.03;4991922;28;977;-58
2022/01/22 11:57:46;;;;;;;;;;;;;;;2.52;43.82;99585.91;4992335;28;821;-56
2022/01/22 12:00:26;;;;;;;;;;;;;;;2.56;43.71;99586.78;4992202;28;840;-58
2022/01/22 12:03:04;;;;;;;;;;;;;;;2.28;42.47;99578.72;4991978;28;809;-58
2022/01/22 12:05:31;;;;;;;;;;;;;;;1.55;42.06;99572.56;4992143;28;868;-58
2022/01/22 12:07:59;;;;;;;;;;;;;;;1.02;42.46;99584.31;4991909;28;856;-58
2022/01/22 12:14:25;;;;;;;;;;;;;;;0.78;43.62;99589.78;4991774;28;1971;-58
2022/01/22 12:16:17;;;;;;;;;;;;;;;1.65;42.98;99576.72;5009780;28;1394;-57
2022/01/22 12:19:10;;;;;;;;;;;;;;;1.62;43.39;99570.00;5011409;28;892;-56
2022/01/22 12:21:33;;;;;;;;;;;;;;;1.36;42.60;99565.81;5009878;28;1650;-58
2022/01/22 12:24:00;;;;;;;;;;;;;;;1.51;41.26;99567.00;5011228;28;928;-58
2022/01/22 12:26:45;;;;;;;;;;;;;;;2.16;43.51;99565.97;5011871;28;796;-58
2022/01/22 12:29:28;;;;;;;;;;;;;;;2.40;41.58;99573.19;4993681;28;1914;-56
2022/01/22 12:32:12;;;;;;;;;;;;;;;1.60;41.99;99570.38;5011282;28;829;-58
2022/01/22 12:34:52;;;;;;;;;;;;;;;1.88;41.82;99574.19;4993697;28;920;-58
2022/01/22 12:37:20;;;;;;;;;;;;;;;2.20;42.65;99569.59;5011947;28;796;-58
2022/01/22 12:39:52;;;;;;;;;;;;;;;2.75;40.92;99570.50;5011238;28;940;-57
2022/01/22 12:42:29;;;;;;;;;;;;;;;2.95;40.19;99565.88;5011262;28;833;-58
2022/01/22 12:45:07;;;;;;;;;;;;;;;2.53;40.44;99571.16;5010921;28;1337;-58
2022/01/22 12:47:36;;;;;;;;;;;;;;;2.56;40.18;99564.97;5011169;28;876;-57
2022/01/22 12:50:07;;;;;;;;;;;;;;;1.96;41.12;99565.88;5010851;28;1882;-57
2022/01/22 12:52:34;;;;;;;;;;;;;;;1.45;42.06;99575.78;5011036;28;829;-57
2022/01/22 12:55:13;;;;;;;;;;;;;;;1.17;40.79;99569.19;5011157;28;966;-58
2022/01/22 12:57:44;;;;;;;;;;;;;;;1.11;39.29;99567.84;5011131;28;880;-56
2022/01/22 13:03:13;;;;;;;;;;;;;;;1.08;40.30;99557.63;5014769;28;676;-52
2022/01/22 13:05:45;;;;;;;;;;;;;;;0.82;41.42;99579.78;5014557;28;888;-58
2022/01/22 13:08:12;;;;;;;;;;;;;;;0.57;41.67;99579.03;5014407;28;1945;-57
2022/01/22 13:10:43;;;;;;;;;;;;;;;0.39;41.29;99581.19;5014377;28;833;-57
2022/01/22 13:13:14;;;;;;;;;;;;;;;0.22;41.43;99576.75;5014247;28;857;-56
2022/01/22 13:15:42;;;;;;;;;;;;;;;0.14;42.53;99574.94;5014026;28;1319;-58
2022/01/22 13:18:11;;;;;;;;;;;;;;;0.10;40.88;99560.41;5014235;28;953;-58
2022/01/22 13:20:37;;;;;;;;;;;;;;;0.37;40.87;99559.75;5014077;28;849;-58
2022/01/22 13:26:05;;;;;;;;;;;;;;;1.38;38.25;99557.31;5014097;28;628;-56
2022/01/22 13:28:33;;;;;;;;;;;;;;;1.05;38.77;99563.00;5013905;28;1993;-58
2022/01/22 13:31:05;;;;;;;;;;;;;;;0.85;40.31;99562.00;5013940;28;920;-58
2022/01/22 13:33:48;;;;;;;;;;;;;;;0.66;42.04;99570.75;5013901;28;856;-58
2022/01/22 13:50:00;;;;;;;;;;;;;;;2.01;39.73;99554.72;5013978;28;1967;-57
2022/01/22 13:52:28;;;;;;;;;;;;;;;2.25;37.44;99540.09;4995837;28;870;-57
2022/01/22 13:54:54;;;;;;;;;;;;;;;2.00;38.15;99544.16;5013550;28;900;-55
2022/01/22 13:57:22;;;;;;;;;;;;;;;1.82;38.32;99554.59;5013554;28;878;-57
2022/01/22 13:59:52;;;;;;;;;;;;;;;1.83;39.02;99548.81;5013356;28;864;-58
2022/01/22 14:02:39;;;;;;;;;;;;;;;1.61;38.83;99555.59;5013644;28;927;-57
2022/01/22 14:05:07;;;;;;;;;;;;;;;1.63;38.68;99556.06;5013304;28;888;-57
2022/01/22 14:07:37;;;;;;;;;;;;;;;1.53;38.34;99559.28;5013192;28;891;-57
2022/01/22 14:13:12;;;;;;;;;;;;;;;1.23;40.15;99548.72;4933560;29;1435;-57
2022/01/22 14:15:45;;;;;;;;;;;;;;;1.08;40.34;99554.13;4933508;29;1435;-57
2022/01/22 14:18:19;;;;;;;;;;;;;;;0.96;41.55;99550.31;4917605;29;996;-58
2022/01/22 14:20:56;;;;;;;;;;;;;;;0.78;40.69;99555.19;4933453;29;1004;-58
2022/01/22 14:23:23;;;;;;;;;;;;;;;0.42;41.58;99560.66;4933434;29;1106;-58
2022/01/22 14:26:00;;;;;;;;;;;;;;;-0.06;43.38;99549.44;4933721;29;1095;-58
2022/01/22 14:28:46;;;;;;;;;;;;;;;-0.28;44.44;99565.00;4933210;29;1914;-57
2022/01/22 14:31:20;;;;;;;;;;;;;;;-0.35;44.64;99551.16;4933528;29;1043;-57
2022/01/22 14:33:46;;;;;;;;;;;;;;;-0.51;44.84;99567.31;4933435;29;825;-57
2022/01/22 14:36:16;;;;;;;;;;;;;;;-0.65;45.33;99572.22;4933128;29;1107;-57
2022/01/22 14:38:52;;;;;;;;;;;;;;;-0.82;46.31;99576.66;4933172;29;892;-56
2022/01/22 14:44:26;;;;;;;;;;;;;;;-0.97;46.97;99590.03;4933303;29;1065;-57
2022/01/22 14:47:03;;;;;;;;;;;;;;;-1.11;47.34;99591.09;4932962;29;850;-56
2022/01/22 14:49:32;;;;;;;;;;;;;;;-1.21;47.68;99599.59;4959081;28;1910;-55
2022/01/22 14:52:01;;;;;;;;;;;;;;;-1.25;48.07;99594.03;5012281;28;1154;-56
2022/01/22 14:54:28;;;;;;;;;;;;;;;-1.35;48.57;99596.31;5012370;28;988;-56
2022/01/22 14:56:55;;;;;;;;;;;;;;;-1.39;48.73;99596.19;5012407;28;923;-56
2022/01/22 14:59:22;;;;;;;;;;;;;;;-1.40;49.14;99610.88;4994711;28;2554;-56
2022/01/22 15:01:48;;;;;;;;;;;;;;;-1.52;50.40;99600.72;5012188;28;951;-56
2022/01/22 15:04:15;;;;;;;;;;;;;;;-1.62;51.66;99601.09;5012218;28;876;-56
2022/01/22 15:06:41;;;;;;;;;;;;;;;-1.82;54.30;99609.94;5012168;28;1081;-56
2022/01/22 15:09:07;;;;;;;;;;;;;;;-1.98;55.36;99612.38;5012195;28;1910;-56
2022/01/22 15:11:34;;;;;;;;;;;;;;;-2.01;52.73;99613.81;5012229;28;889;-56
2022/01/22 15:14:02;;;;;;;;;;;;;;;-2.01;53.85;99616.50;5012253;28;879;-56
2022/01/22 15:16:36;;;;;;;;;;;;;;;-1.91;49.88;99624.28;5011898;28;1514;-56
2022/01/22 15:19:04;;;;;;;;;;;;;;;-1.60;49.48;99625.13;5011739;28;896;-55
2022/01/22 15:21:31;;;;;;;;;;;;;;;-1.52;50.79;99616.97;5012122;28;873;-56
2022/01/22 15:23:57;;;;;;;;;;;;;;;-1.61;51.96;99624.34;5011841;28;883;-56
2022/01/22 15:26:23;;;;;;;;;;;;;;;-1.70;51.90;99623.59;5012056;28;885;-56
2022/01/22 15:36:55;;;;;;;;;;;;;;;-1.99;53.66;99633.22;5011777;28;683;-56
2022/01/22 15:39:21;;;;;;;;;;;;;;;-2.00;53.55;99634.38;4994225;28;1614;-56
2022/01/22 15:41:48;;;;;;;;;;;;;;;-1.97;53.78;99635.63;5011832;28;873;-56
2022/01/22 15:44:15;;;;;;;;;;;;;;;-1.99;53.48;99649.50;5011696;28;869;-56
2022/01/22 15:46:42;;;;;;;;;;;;;;;-2.00;53.93;99647.91;5011743;28;845;-56
2022/01/22 15:49:13;;;;;;;;;;;;;;;-1.99;52.89;99654.13;4994122;28;1894;-56